Flight Track Log - Related Links

Times and Time Zones

All times are in EDT time to prevent confusion due to time zone crossing. See the N315L flight status page for this flight to view local times or setup timezone preferences in your user account.

Time Position Orientation Groundspeed Altitude Reporting Facility
EDT Latitude Longitude Course Direction KTS MPH feet Rate Location/Type
Sat 02:41:04 PM 41.4667 -87.3000 90° East 135 155 7,200  Level Chicago TRACON
Sat 02:42:04 PM 41.4667 -87.2500 90° East 140 161 7,400 200 Climbing Chicago TRACON
Sat 02:43:04 PM 41.4589 -87.2022 102° East 144 166 7,600 98 Climbing Chicago Center
Sat 02:44:06 PM 41.4517 -87.1500 100° East 145 167 7,600  Level Chicago Center
Sat 02:45:08 PM 41.4406 -87.0983 106° East 144 166 7,600  Level Chicago Center
Sat 02:46:10 PM 41.4294 -87.0478 106° East 144 166 7,600  Level Chicago Center
Sat 02:47:12 PM 41.4197 -86.9956 104° East 145 167 7,600  Level Chicago Center
Sat 02:48:14 PM 41.4097 -86.9436 104° East 147 169 7,600  Level Chicago Center
Sat 02:49:16 PM 41.3975 -86.8797 104° East 149 171 7,600  Level Chicago Center
Sat 02:50:18 PM 41.3886 -86.8275 103° East 146 168 7,600  Level Chicago Center
Sat 02:51:20 PM 41.3808 -86.7753 101° East 145 167 7,600  Level Chicago Center
Sat 02:52:22 PM 41.3703 -86.7233 105° East 146 168 7,600  Level Chicago Center
Sat 02:53:24 PM 41.3583 -86.6625 105° East 148 170 7,600  Level Chicago Center
Sat 02:54:26 PM 41.3486 -86.6094 104° East 148 170 7,600  Level Chicago Center
Sat 02:55:28 PM 41.3386 -86.5581 105° East 147 169 7,600  Level Chicago Center
Sat 02:56:31 PM 41.3289 -86.5064 104° East 146 168 7,600  Level Chicago Center
Sat 02:57:32 PM 41.3206 -86.4553 102° East 143 165 7,600  Level Chicago Center
Sat 02:58:34 PM 41.3108 -86.4050 104° East 142 163 7,600  Level Chicago Center
Sat 02:59:38 PM 41.2981 -86.3425 105° East 145 167 7,600  Level Chicago Center
Sat 03:00:40 PM 41.2892 -86.2903 103° East 145 167 7,600  Level Chicago Center
Sat 03:01:42 PM 41.2775 -86.2378 106° East 148 170 7,600  Level Chicago Center
Sat 03:02:44 PM 41.2681 -86.1850 103° East 148 170 7,600  Level Chicago Center
Sat 03:03:46 PM 41.2592 -86.1331 103° East 147 169 7,600  Level Chicago Center
Sat 03:04:48 PM 41.2458 -86.0683 105° East 151 174 7,600  Level Chicago Center
Sat 03:05:50 PM 41.2364 -86.0144 103° East 152 175 7,600  Level Chicago Center
Sat 03:06:52 PM 41.2272 -85.9622 103° East 148 170 7,600  Level Chicago Center
Sat 03:07:54 PM 41.2167 -85.9078 104° East 150 173 7,600 48 Level Chicago Center
Sat 03:08:56 PM 41.2072 -85.8553 103° East 149 171 7,700 48 Climbing Chicago Center
Sat 03:09:58 PM 41.1981 -85.8033 103° East 146 168 7,700  Level Chicago Center
Sat 03:11:00 PM 41.1856 -85.7389 104° East 149 171 7,700  Level Chicago Center
Sat 03:12:02 PM 41.1750 -85.6856 105° East 151 174 7,700  Level Chicago Center
Sat 03:13:04 PM 41.1647 -85.6328 104° East 149 171 7,700 -48 Level Chicago Center
Sat 03:14:06 PM 41.1536 -85.5792 105° East 150 173 7,600 -48 Descending Chicago Center
Sat 03:15:08 PM 41.1431 -85.5258 105° East 150 173 7,600  Level Chicago Center
Sat 03:16:10 PM 41.1311 -85.4633 104° East 148 170 7,600  Level Chicago Center
Sat 03:17:12 PM 41.1211 -85.4114 104° East 146 168 7,600  Level Chicago Center
Sat 03:18:14 PM 41.1111 -85.3578 104° East 148 170 7,600  Level Chicago Center
Sat 03:19:15 PM 41.1003 -85.3058 105° East 148 170 7,600  Level Chicago Center
Sat 03:20:17 PM 41.0900 -85.2547 105° East 146 168 7,600  Level Chicago Center
Sat 03:21:19 PM 41.0794 -85.2003 104° East 150 173 7,600  Level Chicago Center
Sat 03:22:21 PM 41.0669 -85.1372 105° East 149 171 7,600  Level Chicago Center
Sat 03:23:23 PM 41.0569 -85.0853 104° East 148 170 7,600  Level Chicago Center
Sat 03:24:25 PM 41.0464 -85.0328 105° East 147 169 7,600  Level Chicago Center
Sat 03:25:26 PM 41.0361 -84.9800 104° East 148 170 7,600  Level Chicago Center
Sat 03:26:28 PM 41.0258 -84.9278 105° East 148 170 7,600  Level Chicago Center
Sat 03:27:30 PM 41.0158 -84.8761 104° East 146 168 7,600  Level Chicago Center
Sat 03:28:32 PM 41.0047 -84.8233 106° East 148 170 7,600  Level Chicago Center
Sat 03:29:34 PM 40.9922 -84.7619 105° East 146 168 7,600  Level Chicago Center
Sat 03:30:36 PM 40.9819 -84.7075 104° East 148 170 7,600  Level Chicago Center
Sat 03:31:38 PM 40.9714 -84.6561 105° East 148 170 7,600  Level Chicago Center
Sat 03:32:39 PM 40.9614 -84.6039 104° East 147 169 7,600  Level Chicago Center
Sat 03:34:43 PM 40.9403 -84.4981 105° East 149 171 7,600  Level Chicago Center
Sat 03:35:45 PM 40.9269 -84.4356 106° East 148 170 7,600  Level Chicago Center
Sat 03:36:47 PM 40.9172 -84.3817 103° East 149 171 7,600  Level Chicago Center
Sat 03:37:49 PM 40.9064 -84.3292 105° East 149 171 7,600  Level Chicago Center
Sat 03:38:51 PM 40.8956 -84.2756 105° East 150 173 7,600  Level Chicago Center
Sat 03:39:52 PM 40.8844 -84.2233 106° East 150 173 7,600  Level Chicago Center
Sat 03:40:54 PM 40.8744 -84.1697 104° East 149 171 7,600  Level Chicago Center
Sat 03:41:42 PM 40.8631 -84.1211 107° East 146 168 7,600  Level Indianapolis Center
Sat 03:42:43 PM 40.8517 -84.0694 106° East 144 166 7,600  Level Indianapolis Center
Sat 03:43:45 PM 40.8400 -84.0153 106° East 148 170 7,600  Level Indianapolis Center
Sat 03:44:46 PM 40.8292 -83.9631 105° East 149 171 7,600  Level Indianapolis Center
Sat 03:45:48 PM 40.8189 -83.9094 104° East 149 171 7,600  Level Indianapolis Center
Sat 03:46:49 PM 40.8081 -83.8561 105° East 149 171 7,600  Level Indianapolis Center
Sat 03:47:51 PM 40.7983 -83.8031 104° East 148 170 7,600  Level Indianapolis Center
Sat 03:48:52 PM 40.7856 -83.7506 108° East 148 170 7,600  Level Indianapolis Center
Sat 03:49:29 PM 40.7761 -83.7142 109° East 151 174 7,600  Level Indianapolis Center
Sat 03:50:30 PM 40.7658 -83.6631 105° East 148 170 7,600  Level Indianapolis Center
Sat 03:51:32 PM 40.7572 -83.6119 103° East 145 167 7,600  Level Indianapolis Center
Sat 03:52:33 PM 40.7433 -83.5575 109° East 149 171 7,600  Level Indianapolis Center
Sat 03:53:35 PM 40.7319 -83.5058 106° East 149 171 7,600  Level Indianapolis Center
Sat 03:54:36 PM 40.7206 -83.4525 106° East 148 170 7,600  Level Indianapolis Center
Sat 03:55:38 PM 40.7114 -83.4008 103° East 147 169 7,600  Level Indianapolis Center
Sat 03:56:39 PM 40.6983 -83.3472 108° East 149 171 7,600  Level Indianapolis Center
Sat 03:57:41 PM 40.6900 -83.2961 102° East 147 169 7,600  Level Indianapolis Center
Sat 03:58:42 PM 40.6750 -83.2342 108° East 147 169 7,600  Level Indianapolis Center
Sat 03:59:43 PM 40.6633 -83.1808 106° East 149 171 7,600  Level Indianapolis Center
Sat 04:00:45 PM 40.6519 -83.1275 106° East 150 173 7,600  Level Indianapolis Center
Sat 04:01:46 PM 40.6403 -83.0753 106° East 149 171 7,600  Level Indianapolis Center
Sat 04:02:48 PM 40.6292 -83.0239 106° East 148 170 7,600  Level Indianapolis Center
Sat 04:03:49 PM 40.6169 -82.9697 107° East 149 171 7,600  Level Indianapolis Center
Sat 04:04:50 PM 40.6072 -82.9167 104° East 150 173 7,600  Level Indianapolis Center
Sat 04:05:52 PM 40.5944 -82.8653 108° East 148 170 7,600  Level Indianapolis Center
Sat 04:06:53 PM 40.5814 -82.8131 108° East 148 170 7,600  Level Indianapolis Center
Sat 04:07:55 PM 40.5714 -82.7619 104° East 147 169 7,600  Level Indianapolis Center
Sat 04:08:56 PM 40.5600 -82.7086 106° East 147 169 7,600  Level Indianapolis Center
Sat 04:09:57 PM 40.5489 -82.6556 105° East 148 170 7,600  Level Indianapolis Center
Sat 04:10:59 PM 40.5369 -82.5947 104° East 148 170 7,600  Level Indianapolis Center
Sat 04:12:00 PM 40.5258 -82.5419 105° East 148 170 7,600  Level Indianapolis Center
Sat 04:13:02 PM 40.5153 -82.4906 105° East 147 169 7,600  Level Indianapolis Center
Sat 04:14:03 PM 40.5028 -82.4386 108° East 147 169 7,600  Level Indianapolis Center
Sat 04:15:04 PM 40.4908 -82.3881 107° East 145 167 7,600  Level Indianapolis Center
Sat 04:16:06 PM 40.4781 -82.3353 108° East 148 170 7,600  Level Indianapolis Center
Sat 04:17:07 PM 40.4658 -82.2839 107° East 147 169 7,600  Level Indianapolis Center
Sat 04:18:08 PM 40.4542 -82.2322 107° East 147 169 7,600  Level Indianapolis Center
Sat 04:19:10 PM 40.4439 -82.1844 106° East 143 165 7,600  Level Indianapolis Center
Sat 04:20:11 PM 40.4300 -82.1300 109° East 145 167 7,600  Level Indianapolis Center
Sat 04:21:12 PM 40.4181 -82.0797 107° East 148 170 7,600  Level Indianapolis Center
Sat 04:22:14 PM 40.4058 -82.0303 108° East 142 163 7,600  Level Indianapolis Center
Sat 04:23:15 PM 40.3925 -81.9753 108° East 150 173 7,600  Level Indianapolis Center
Sat 04:24:16 PM 40.3775 -81.9189 109° East 145 167 7,600  Level Indianapolis Center
Sat 04:25:17 PM 40.3639 -81.8650 108° East 150 173 7,600  Level Indianapolis Center
Sat 04:26:19 PM 40.3519 -81.8164 108° East 145 167 7,600  Level Indianapolis Center
Sat 04:27:20 PM 40.3389 -81.7647 108° East 146 168 7,600  Level Indianapolis Center
Sat 04:28:21 PM 40.3264 -81.7144 108° East 145 167 7,600  Level Indianapolis Center
Sat 04:29:22 PM 40.3158 -81.6644 105° East 143 165 7,600  Level Indianapolis Center
Sat 04:30:24 PM 40.3047 -81.6139 106° East 142 163 7,600  Level Indianapolis Center
Sat 04:31:25 PM 40.2939 -81.5586 104° East 149 171 7,600  Level Indianapolis Center
Sat 04:32:26 PM 40.2825 -81.5058 106° East 151 174 7,600  Level Indianapolis Center
Sat 04:33:28 PM 40.2706 -81.4575 108° East 146 168 7,600  Level Indianapolis Center
Sat 04:34:29 PM 40.2583 -81.4097 109° East 140 161 7,600  Level Indianapolis Center
Sat 04:35:30 PM 40.2467 -81.3558 106° East 145 167 7,600  Level Indianapolis Center
Sat 04:36:32 PM 40.2344 -81.3072 108° East 144 166 7,600  Level Indianapolis Center
Sat 04:37:33 PM 40.2228 -81.2572 107° East 143 165 7,600  Level Indianapolis Center
Sat 04:38:34 PM 40.2092 -81.1981 107° East 143 165 7,600  Level Indianapolis Center
Sat 04:39:36 PM 40.1964 -81.1475 108° East 145 167 7,600  Level Indianapolis Center
Sat 04:40:12 PM 40.1925 -81.1231 102° East 146 168 7,600  Level Cleveland Center
Sat 04:41:13 PM 40.1781 -81.0650 108° East 142 163 7,600  Level Cleveland Center
Sat 04:42:15 PM 40.1672 -81.0147 106° East 142 163 7,600  Level Cleveland Center
Sat 04:43:17 PM 40.1542 -80.9644 109° East 145 167 7,600  Level Cleveland Center
Sat 04:44:18 PM 40.1422 -80.9156 108° East 144 166 7,600  Level Cleveland Center
Sat 04:45:20 PM 40.1306 -80.8664 107° East 143 165 7,600  Level Cleveland Center
Sat 04:46:22 PM 40.1194 -80.8156 106° East 145 167 7,600 -146 Level Cleveland Center
Sat 04:47:23 PM 40.1086 -80.7514 102° East 151 174 7,300 -293 Descending Cleveland Center
Sat 04:48:25 PM 40.1036 -80.6942 96° East 159 183 7,000 -339 Descending Cleveland Center
Sat 04:49:27 PM 40.0908 -80.6403 107° East 156 180 6,600 -390 Descending Cleveland Center
Sat 04:50:28 PM 40.0761 -80.5861 110° East 160 184 6,200 -439 Descending Cleveland Center
Sat 04:51:30 PM 40.0628 -80.5297 107° East 163 188 5,700 -339 Descending Cleveland Center
Sat 04:52:32 PM 40.0533 -80.4747 103° East 161 185 5,500 -98 Descending Cleveland Center
Sat 04:53:33 PM 40.0425 -80.4239 106° East 155 178 5,500  Level Cleveland Center
Sat 04:54:35 PM 40.0269 -80.3639 109° East 149 171 5,500  Level Cleveland Center
Sat 04:55:37 PM 40.0139 -80.3133 109° East 148 170 5,500  Level Cleveland Center
Sat 04:56:38 PM 40.0017 -80.2625 107° East 148 170 5,500  Level Cleveland Center
Sat 04:57:40 PM 39.9900 -80.2122 107° East 147 169 5,500  Level Cleveland Center
Sat 04:58:41 PM 39.9767 -80.1625 109° East 146 168 5,500  Level Cleveland Center
Sat 04:59:43 PM 39.9644 -80.1131 108° East 146 168 5,500  Level Cleveland Center
Sat 05:00:45 PM 39.9525 -80.0631 107° East 145 167 5,500  Level Cleveland Center
Sat 05:01:46 PM 39.9369 -80.0036 109° East 146 168 5,500 -49 Level Cleveland Center
Sat 05:02:48 PM 39.9247 -79.9539 108° East 145 167 5,400 -48 Descending Cleveland Center
Sat 05:03:50 PM 39.9100 -79.9036 111° Southeast 147 169 5,400 50 Level Cleveland Center
Sat 05:04:48 PM 39.8919 -79.8489 113° Southeast 148 170 5,500  Climbing Cleveland Center
Sat 05:04:51 PM 39.8964 -79.8531 324° Northwest 149 171 5,400  Descending Cleveland Center
Sat 05:05:31 PM 39.8825 -79.8147 115° Southeast 150 173 5,500  Climbing Cleveland Center
Sat 05:05:53 PM 39.8819 -79.8028 93° East 150 173 5,400  Descending Cleveland Center
Sat 05:06:31 PM 39.8703 -79.7639 111° Southeast 152 175 5,500  Climbing Cleveland Center
Sat 05:06:55 PM 39.8689 -79.7522 99° East 148 170 5,400  Descending Cleveland Center
Sat 05:07:32 PM 39.8539 -79.7097 115° Southeast 151 174 5,500  Climbing Cleveland Center
Sat 05:07:56 PM 39.8500 -79.6900 104° East 152 175 5,400  Descending Cleveland Center
Sat 05:08:33 PM 39.8400 -79.6558 111° Southeast 153 176 5,500  Climbing Cleveland Center
Sat 05:08:58 PM 39.8356 -79.6386 109° East 152 175 5,400  Descending Cleveland Center
Sat 05:09:33 PM 39.8272 -79.6078 109° East 151 174 5,500  Climbing Cleveland Center
Sat 05:10:00 PM 39.8242 -79.5861 100° East 152 175 5,400  Descending Cleveland Center
Sat 05:10:34 PM 39.8131 -79.5567 116° Southeast 148 170 5,500  Climbing Cleveland Center
Sat 05:11:01 PM 39.8097 -79.5361 102° East 149 171 5,400  Descending Cleveland Center
Sat 05:11:35 PM 39.7989 -79.5003 111° Southeast 149 171 5,500  Climbing Cleveland Center
Sat 05:12:03 PM 39.7969 -79.4842 99° East 150 173 5,400  Descending Cleveland Center
Sat 05:12:35 PM 39.7844 -79.4492 115° Southeast 152 175 5,500  Climbing Cleveland Center
Sat 05:13:05 PM 39.7817 -79.4322 102° East 153 176 5,400 -179 Descending Cleveland Center
Sat 05:13:42 PM 39.7706 -79.3928 110° East 154 177 5,300 -295 Descending Cleveland Center
Sat 05:14:06 PM 39.7683 -79.3794 102° East 154 177 5,100 -300 Descending Cleveland Center
Sat 05:14:42 PM 39.7611 -79.3317 101° East 161 185 5,000 -290 Descending Cleveland Center
Sat 05:15:08 PM 39.7611 -79.3103 90° East 159 183 4,800 -197 Descending Cleveland Center
Sat 05:15:43 PM 39.7572 -79.2767 99° East 161 185 4,800 -194 Level Cleveland Center
Sat 05:16:10 PM 39.7586 -79.2531 86° East 160 184 4,600  Descending Cleveland Center
Sat 05:16:44 PM 39.7533 -79.2244 103° East 147 169 4,800  Climbing Cleveland Center
Sat 05:17:11 PM 39.7519 -79.2058 96° East 146 168 4,600 -100 Descending Cleveland Center
Sat 05:17:44 PM 39.7425 -79.1794 115° Southeast 133 153 4,700 -97 Climbing Cleveland Center
Sat 05:18:13 PM 39.7417 -79.1578 93° East 141 162 4,500 -197 Descending Cleveland Center
Sat 05:18:45 PM 39.7278 -79.1286 122° Southeast 138 159 4,500 -97 Level Cleveland Center
Sat 05:19:15 PM 39.7250 -79.1117 102° East 141 162 4,400  Descending Cleveland Center
Sat 05:19:46 PM 39.7108 -79.0828 123° Southeast 141 162 4,500  Climbing Cleveland Center
Sat 05:20:16 PM 39.7092 -79.0661 97° East 140 161 4,400  Descending Cleveland Center
Sat 05:20:46 PM 39.6956 -79.0397 124° Southeast 137 158 4,500  Climbing Cleveland Center
Sat 05:21:18 PM 39.6936 -79.0206 98° East 139 160 4,400  Descending Cleveland Center
Sat 05:21:47 PM 39.6803 -78.9944 124° Southeast 139 160 4,500 -133 Climbing Cleveland Center
Sat 05:22:48 PM 39.6678 -78.9436 108° East 147 169 4,200 -220 Descending Cleveland Center
Sat 05:23:36 PM 39.6614 -78.8942 100° East 174 200 4,100 -100 Descending Cleveland Center
Sat 05:23:48 PM 39.6619 -78.8861 85° East 148 170 4,100  Level Cleveland Center
Sat 05:24:49 PM 39.6600 -78.8342 93° East 144 166 4,100 99 Level Cleveland Center
Sat 05:25:49 PM 39.6553 -78.7875 97° East 137 158 4,300 109 Climbing Cleveland Center
Sat 05:26:39 PM 39.6503 -78.7433 98° East 174 200 4,300  Level Cleveland Center
Sat 05:26:50 PM 39.6489 -78.7378 108° East 137 158 4,300 -194 Level Cleveland Center
Sat 05:27:41 PM 39.6306 -78.6978 121° Southeast 146 168 4,100  Descending Cleveland Center
Sat 05:27:51 PM 39.6456 -78.7264 304° West 137 158 4,300 -98 Climbing Cleveland Center
Sat 05:28:42 PM 39.6075 -78.6547 125° Southeast 146 168 4,000 -173 Descending Cleveland Center
Sat 05:29:35 PM 39.5925 -78.6158 117° Southeast 195 224 4,000  Level Washington Center
Sat 05:30:36 PM 39.5792 -78.5667 109° East 170 196 4,000  Level Washington Center
Sat 05:31:36 PM 39.5656 -78.5178 110° East 148 170 4,000  Level Washington Center
Sat 05:32:37 PM 39.5542 -78.4714 108° East 142 163 4,000  Level Washington Center
Sat 05:33:35 PM 39.5408 -78.4253 111° Southeast 142 163 4,000  Level Washington Center
Sat 05:34:36 PM 39.5253 -78.3761 112° Southeast 142 163 4,000  Level Washington Center
Sat 05:35:38 PM 39.5117 -78.3272 110° East 142 163 4,000  Level Washington Center
Sat 05:36:36 PM 39.4983 -78.2783 109° East 142 163 4,000  Level Washington Center
Sat 05:37:36 PM 39.4869 -78.2322 108° East 137 158 4,000  Level Washington Center
Sat 05:38:37 PM 39.4731 -78.1886 112° Southeast 137 158 4,000  Level Washington Center
Sat 05:39:35 PM 39.4575 -78.1369 111° Southeast 142 163 4,000 -153 Level Washington Center
Sat 05:40:35 PM 39.4461 -78.0856 106° East 142 163 3,700 -200 Descending Washington Center
Sat 05:41:35 PM 39.4369 -78.0342 103° East 147 169 3,600 -79 Descending Washington Center
Sat 05:43:07 PM 39.4236 -77.9492 101° East 148 170 3,500  Descending Cleveland Center
Sat 05:43:59 PM 39.4167 -77.9167 105° East 144 166 3,600 54 Climbing Potomac TRACON
Sat 05:44:59 PM 39.4000 -77.8667 113° Southeast 144 166 3,600  Level Potomac TRACON
Sat 05:45:59 PM 39.3833 -77.8167 113° Southeast 145 167 3,600 -150 Level Potomac TRACON
Sat 05:46:59 PM 39.3667 -77.7667 113° Southeast 144 166 3,300 -150 Descending Potomac TRACON
Sat 05:47:59 PM 39.3500 -77.7167 113° Southeast 147 169 3,300 -50 Level Potomac TRACON
Sat 05:49:00 PM 39.3333 -77.6667 113° Southeast 150 173 3,200 -99 Descending Potomac TRACON
Sat 05:50:00 PM 39.3333 -77.6167 90° East 148 170 3,100 -100 Descending Potomac TRACON
Sat 05:51:00 PM 39.3167 -77.5667 113° Southeast 148 170 3,000 -150 Descending Potomac TRACON
Sat 05:52:00 PM 39.3000 -77.5167 113° Southeast 147 169 2,800 -250 Descending Potomac TRACON
Sat 05:53:00 PM 39.2833 -77.4667 113° Southeast 151 174 2,500 -149 Descending Potomac TRACON
Sat 05:54:01 PM 39.2667 -77.4167 113° Southeast 150 173 2,500  Level Potomac TRACON
Sat 05:55:01 PM 39.2500 -77.3667 113° Southeast 144 166 2,500  Level Potomac TRACON
Sat 05:56:01 PM 39.2333 -77.3167 113° Southeast 156 180 2,500  Level Potomac TRACON
Sat 05:57:01 PM 39.2167 -77.2833 123° Southeast 140 161 2,500  Level Potomac TRACON
Sat 05:58:01 PM 39.2000 -77.2333 113° Southeast 142 163 2,500 50 Level Potomac TRACON
Sat 05:59:01 PM 39.1833 -77.1833 113° Southeast 146 168 2,600 50 Climbing Potomac TRACON
Sat 06:00:01 PM 39.1667 -77.1333 113° Southeast 144 166 2,600 -200 Level Potomac TRACON
Sat 06:01:01 PM 39.1667 -77.0833 90° East 153 176 2,200 -248 Descending Potomac TRACON
Sat 06:02:02 PM 39.1500 -77.0333 113° Southeast 151 174 2,100 -149 Descending Potomac TRACON
Sat 06:03:02 PM 39.1167 -76.9833 131° Southeast 155 178 1,900 -250 Descending Potomac TRACON
Sat 06:04:02 PM 39.1000 -76.9500 123° Southeast 157 181 1,600 -300 Descending Potomac TRACON
Sat 06:05:02 PM 39.0500 -76.9333 165° South 156 180 1,300 -200 Descending Potomac TRACON
Sat 06:06:02 PM 39.0167 -76.9500 201° Southwest 138 159 1,200 -400 Descending Potomac TRACON
Sat 06:07:02 PM 38.9833 -76.9333 159° South 87 100 500 -700 Descending Potomac TRACON

Login

Don't have an account? Register now (free) for customized features, flight alerts, and more!